KGMU/GMU METAR and TAF weather

Enter ICAO airport designator
Station Type Date Time Source
KGMU METAR 2020/07/03 11:53 UTC NOAA

KGMU 031153Z 04006KT 10SM CLR 27/20 A3001 RMK AO2 SLP149 T02670200 10267 20233 51008


Station Type Date Time Source
KGMU Decoded METAR 2020/07/03 11:53 UTC NOAA

GREENVILLE DOWNTOWN AIRPORT , SC, United States (KGMU) 34-51N 82-21W 315M
Jul 03, 2020 - 07:53 AM EDT / 2020.07.03 1153 UTC
Wind: from the NE (040 degrees) at 7 MPH (6 KT):0
Visibility: 10 mile(s):0
Sky conditions: clear
Temperature: 80.1 F (26.7 C)
Dew Point: 68.0 F (20.0 C)
Relative Humidity: 66%
Pressure (altimeter): 30.01 in. Hg (1016 hPa)
Pressure tendency: 0.02 inches (0.8 hPa) higher than three hours ago
ob: KGMU 031153Z 04006KT 10SM CLR 27/20 A3001 RMK AO2 SLP149 T02670200 10267 20233 51008
cycle: 12

Station Type Date Time Source
KGMU TAF 2020/07/03 12:24 UTC NOAA

TAF KGMU 031123Z 0312/0412 02003KT P6SM SCT070
FM031400 35003KT P6SM FEW070
FM031700 06004KT P6SM SCT050
FM032300 13003KT P6SM FEW060 SCT250

Example: see airport list